createdAt,value
2017-07-15T00:00:13.701Z,6.93
2017-07-15T00:02:40.211Z,7.03
2017-07-15T00:05:06.653Z,5.30
2017-07-15T00:07:33.154Z,4.90
2017-07-15T00:09:59.669Z,3.60
2017-07-15T00:12:26.925Z,4.30
2017-07-15T00:14:54.148Z,5.30
2017-07-15T00:17:20.620Z,3.57
2017-07-15T00:19:47.112Z,3.40
2017-07-15T00:25:10.510Z,5.80
2017-07-15T00:27:37.719Z,5.47
2017-07-15T00:30:04.217Z,5.50
2017-07-15T00:32:30.689Z,4.33
2017-07-15T00:34:57.176Z,4.67
2017-07-15T00:37:23.684Z,6.63
2017-07-15T00:39:50.884Z,5.43
2017-07-15T00:42:17.372Z,4.53
2017-07-15T00:44:44.618Z,6.57
2017-07-15T00:47:11.821Z,10.30
2017-07-15T00:49:38.339Z,5.70
2017-07-15T00:52:04.806Z,7.97
2017-07-15T00:54:31.330Z,4.93
2017-07-15T00:56:57.821Z,9.67
2017-07-15T00:59:24.352Z,13.20
2017-07-15T01:01:50.810Z,11.00
2017-07-15T01:04:17.294Z,8.07
2017-07-15T01:06:44.522Z,11.27
2017-07-15T01:09:10.991Z,10.00
2017-07-15T01:11:37.676Z,7.80
2017-07-15T01:14:04.157Z,10.03
2017-07-15T01:16:31.389Z,5.50
2017-07-15T01:18:58.798Z,7.40
2017-07-15T01:21:25.264Z,5.93
2017-07-15T01:23:51.712Z,9.40
2017-07-15T01:26:18.227Z,10.40
2017-07-15T01:28:44.711Z,6.60
2017-07-15T01:31:11.233Z,10.27
2017-07-15T01:33:37.710Z,8.10
2017-07-15T01:36:04.204Z,7.33
2017-07-15T01:38:30.709Z,8.50
2017-07-15T01:40:57.963Z,7.33
2017-07-15T01:43:25.297Z,6.00
2017-07-15T01:45:51.791Z,9.60
2017-07-15T01:48:18.312Z,14.17
2017-07-15T01:50:44.896Z,11.60
2017-07-15T01:53:11.414Z,7.43
2017-07-15T01:55:37.984Z,9.23
2017-07-15T01:58:05.311Z,16.30
2017-07-15T02:00:31.827Z,11.20
2017-07-15T02:02:58.343Z,8.97
2017-07-15T02:05:24.812Z,10.17
2017-07-15T02:07:51.326Z,8.13
2017-07-15T02:10:17.824Z,7.80
2017-07-15T02:12:44.328Z,10.70
2017-07-15T02:15:11.590Z,13.10
2017-07-15T02:17:38.805Z,12.10
2017-07-15T02:20:05.435Z,9.30
2017-07-15T02:22:31.898Z,11.03
2017-07-15T02:24:59.119Z,5.77
2017-07-15T02:27:25.644Z,9.30
2017-07-15T02:29:52.101Z,7.60
2017-07-15T02:32:18.609Z,11.40
2017-07-15T02:34:45.076Z,10.43
2017-07-15T02:37:11.577Z,14.37
2017-07-15T02:39:38.098Z,11.57
2017-07-15T02:42:04.625Z,15.30
2017-07-15T02:44:31.096Z,15.87
2017-07-15T02:46:57.542Z,22.17
2017-07-15T02:49:24.785Z,14.30
2017-07-15T02:51:51.244Z,14.13
2017-07-15T02:54:17.866Z,17.20
2017-07-15T02:56:45.090Z,18.80
2017-07-15T02:59:11.577Z,30.70
2017-07-15T03:01:38.086Z,14.63
2017-07-15T03:04:05.308Z,18.90
2017-07-15T03:06:31.809Z,13.87
2017-07-15T03:08:58.289Z,14.30
2017-07-15T03:11:25.502Z,25.17
2017-07-15T03:13:52.084Z,20.20
2017-07-15T03:16:19.342Z,14.70
2017-07-15T03:18:46.033Z,20.40
2017-07-15T03:21:12.550Z,11.60
2017-07-15T03:23:39.089Z,16.40
2017-07-15T03:26:05.660Z,14.00
2017-07-15T03:28:32.162Z,21.33
2017-07-15T03:30:59.037Z,24.50
2017-07-15T03:33:26.359Z,19.33
2017-07-15T03:35:52.908Z,19.93
2017-07-15T03:38:19.395Z,17.40
2017-07-15T03:40:45.830Z,16.70
2017-07-15T03:43:12.365Z,14.80
2017-07-15T03:45:38.836Z,21.30
2017-07-15T03:48:05.338Z,12.40
2017-07-15T03:50:31.861Z,14.70
2017-07-15T03:52:58.335Z,17.63
2017-07-15T03:55:24.825Z,13.60
2017-07-15T03:57:51.383Z,17.73
2017-07-15T04:00:17.883Z,14.50
2017-07-15T04:02:44.388Z,11.33
2017-07-15T04:05:11.632Z,18.90
2017-07-15T04:07:38.833Z,14.43
2017-07-15T04:10:05.325Z,14.47
2017-07-15T04:12:32.570Z,12.20
2017-07-15T04:14:59.831Z,15.40
2017-07-15T04:17:27.036Z,21.07
2017-07-15T04:19:53.620Z,20.60
2017-07-15T04:22:20.096Z,11.10
2017-07-15T04:24:46.813Z,15.53
2017-07-15T04:27:13.335Z,18.93
2017-07-15T04:29:39.808Z,15.53
2017-07-15T04:32:06.305Z,11.87
2017-07-15T04:34:32.769Z,10.33
2017-07-15T04:36:59.301Z,12.90
2017-07-15T04:39:25.789Z,13.73
2017-07-15T04:41:52.281Z,10.50
2017-07-15T04:44:18.786Z,15.80
2017-07-15T04:46:45.246Z,17.60
2017-07-15T04:49:11.751Z,16.73
2017-07-15T04:51:38.235Z,14.83
2017-07-15T04:54:05.471Z,11.67
2017-07-15T04:56:31.959Z,10.50
2017-07-15T04:58:58.431Z,11.23
2017-07-15T05:01:25.034Z,14.30
2017-07-15T05:03:51.520Z,9.50
2017-07-15T05:06:18.724Z,8.60
2017-07-15T05:08:45.236Z,14.33
2017-07-15T05:11:11.741Z,15.33
2017-07-15T05:13:38.294Z,9.83
2017-07-15T05:16:04.766Z,7.07
2017-07-15T05:18:31.294Z,9.90
2017-07-15T05:20:57.775Z,12.03
2017-07-15T05:23:24.239Z,9.83
2017-07-15T05:25:50.757Z,16.10
2017-07-15T05:28:17.234Z,10.77
2017-07-15T05:30:43.690Z,9.53
2017-07-15T05:33:10.228Z,14.13
2017-07-15T05:35:36.720Z,13.33
2017-07-15T05:38:03.262Z,14.97
2017-07-15T05:40:29.725Z,13.03
2017-07-15T05:42:56.926Z,8.13
2017-07-15T05:45:23.565Z,18.83
2017-07-15T05:47:50.018Z,7.57
2017-07-15T05:50:16.485Z,9.27
2017-07-15T05:52:43.738Z,7.37
2017-07-15T05:55:10.946Z,13.63
2017-07-15T05:57:37.401Z,10.70
2017-07-15T06:00:03.917Z,16.00
2017-07-15T06:02:30.403Z,12.00
2017-07-15T06:04:56.896Z,12.47
2017-07-15T06:07:24.191Z,12.53
2017-07-15T06:09:50.674Z,14.10
2017-07-15T06:12:17.213Z,7.60
2017-07-15T06:14:43.729Z,10.10
2017-07-15T06:17:10.217Z,8.03
2017-07-15T06:19:36.747Z,12.00
2017-07-15T06:22:03.250Z,12.97
2017-07-15T06:24:30.443Z,11.27
2017-07-15T06:26:56.973Z,8.17
2017-07-15T06:29:23.440Z,9.57
2017-07-15T06:31:49.948Z,9.80
2017-07-15T06:34:16.422Z,8.63
2017-07-15T06:36:43.130Z,10.30
2017-07-15T06:39:09.572Z,16.07
2017-07-15T06:41:36.044Z,11.77
2017-07-15T06:44:03.332Z,6.97
2017-07-15T06:46:29.802Z,8.57
2017-07-15T06:48:56.327Z,12.30
2017-07-15T06:51:22.798Z,5.73
2017-07-15T06:53:50.016Z,8.60
2017-07-15T06:56:16.530Z,7.10
2017-07-15T06:58:43.002Z,10.20
2017-07-15T07:01:10.240Z,7.57
2017-07-15T07:03:36.713Z,6.53
2017-07-15T07:06:03.209Z,9.40
2017-07-15T07:08:30.488Z,8.07
2017-07-15T07:10:56.975Z,10.17
2017-07-15T07:13:23.467Z,10.07
2017-07-15T07:15:49.990Z,10.33
2017-07-15T07:18:16.461Z,18.27
2017-07-15T07:20:43.003Z,10.93
2017-07-15T07:23:09.467Z,11.63
2017-07-15T07:25:36.686Z,12.27
2017-07-15T07:28:03.182Z,12.10
2017-07-15T07:30:29.722Z,11.03
2017-07-15T07:32:56.206Z,9.30
2017-07-15T07:35:23.643Z,9.00
2017-07-15T07:37:50.102Z,9.47
2017-07-15T07:40:17.324Z,12.53
2017-07-15T07:42:43.931Z,8.10
2017-07-15T07:45:10.419Z,6.50
2017-07-15T07:47:37.610Z,10.80
2017-07-15T07:50:04.146Z,6.43
2017-07-15T07:52:30.631Z,7.60
2017-07-15T07:54:57.886Z,7.87
2017-07-15T07:57:25.153Z,12.73
2017-07-15T07:59:51.640Z,6.73
2017-07-15T08:02:18.097Z,5.80
2017-07-15T08:04:45.360Z,7.80
2017-07-15T08:07:11.852Z,5.17
2017-07-15T08:09:38.325Z,5.13
2017-07-15T08:12:04.838Z,4.70
2017-07-15T08:14:32.044Z,4.97
2017-07-15T08:16:58.570Z,6.17
2017-07-15T08:19:25.077Z,6.00
2017-07-15T08:21:51.545Z,8.77
2017-07-15T08:24:18.057Z,4.70
2017-07-15T08:26:44.516Z,13.37
2017-07-15T08:29:10.994Z,7.63
2017-07-15T08:31:38.221Z,4.50
2017-07-15T08:34:04.686Z,3.80
2017-07-15T08:36:31.179Z,7.80
2017-07-15T08:38:57.647Z,9.00
2017-07-15T08:41:24.906Z,6.57
2017-07-15T08:43:51.407Z,7.10
2017-07-15T08:46:17.872Z,5.40
2017-07-15T08:48:44.403Z,5.00
2017-07-15T08:51:10.899Z,3.47
2017-07-15T08:53:37.391Z,6.10
2017-07-15T08:56:03.907Z,3.00
2017-07-15T08:58:30.392Z,3.80
2017-07-15T09:00:56.902Z,4.20
2017-07-15T09:03:23.372Z,3.63
2017-07-15T09:05:50.587Z,5.53
2017-07-15T09:08:17.094Z,4.47
2017-07-15T09:10:43.542Z,5.73
2017-07-15T09:13:10.059Z,5.80
2017-07-15T09:15:36.555Z,7.43
2017-07-15T09:18:03.837Z,3.33
2017-07-15T09:20:30.312Z,2.20
2017-07-15T09:22:56.840Z,3.57
2017-07-15T09:25:23.327Z,5.40
2017-07-15T09:27:49.785Z,23.93
2017-07-15T09:30:16.311Z,3.63
2017-07-15T09:32:42.814Z,4.60
2017-07-15T09:35:10.120Z,2.47
2017-07-15T09:37:36.590Z,3.40
2017-07-15T09:40:03.075Z,4.30
2017-07-15T09:42:29.615Z,2.27
2017-07-15T09:44:56.094Z,6.73
2017-07-15T09:47:22.611Z,2.57
2017-07-15T09:49:49.065Z,8.53
2017-07-15T09:52:16.286Z,5.13
2017-07-15T09:54:42.794Z,2.40
2017-07-15T09:57:09.276Z,3.30
2017-07-15T09:59:36.480Z,2.73
2017-07-15T10:02:03.012Z,2.70
2017-07-15T10:04:30.265Z,3.07
2017-07-15T10:06:56.727Z,3.80
2017-07-15T10:09:24.151Z,2.87
2017-07-15T10:11:50.625Z,3.73
2017-07-15T10:14:18.514Z,5.40
2017-07-15T10:16:45.021Z,2.80
2017-07-15T10:19:12.276Z,5.23
2017-07-15T10:21:39.687Z,4.40
2017-07-15T10:24:06.186Z,3.53
2017-07-15T10:26:32.657Z,3.43
2017-07-15T10:28:59.175Z,3.63
2017-07-15T10:31:25.663Z,3.23
2017-07-15T10:33:52.948Z,2.10
2017-07-15T10:36:19.435Z,3.30
2017-07-15T10:38:46.662Z,2.60
2017-07-15T10:41:13.514Z,4.00
2017-07-15T10:43:40.723Z,3.20
2017-07-15T10:46:07.945Z,1.83
2017-07-15T10:48:34.427Z,3.20
2017-07-15T10:51:00.941Z,7.20
2017-07-15T10:53:27.378Z,2.60
2017-07-15T10:55:53.849Z,3.40
2017-07-15T10:58:21.107Z,5.00
2017-07-15T11:00:47.571Z,1.87
2017-07-15T11:03:14.053Z,2.23
2017-07-15T11:05:40.527Z,1.90
2017-07-15T11:08:07.058Z,8.77
2017-07-15T11:10:33.563Z,2.40
2017-07-15T11:13:00.781Z,1.73
2017-07-15T11:15:27.316Z,2.00
2017-07-15T11:17:53.793Z,1.73
2017-07-15T11:20:21.001Z,1.93
2017-07-15T11:22:47.542Z,1.77
2017-07-15T11:25:14.007Z,4.43
2017-07-15T11:27:41.247Z,2.70
2017-07-15T11:30:08.515Z,1.30
2017-07-15T11:32:34.970Z,1.50
2017-07-15T11:35:01.484Z,4.33
2017-07-15T11:37:28.082Z,3.87
2017-07-15T11:39:54.583Z,1.90
2017-07-15T11:42:21.047Z,1.50
2017-07-15T11:44:47.574Z,1.30
2017-07-15T11:47:14.054Z,1.30
2017-07-15T11:49:40.534Z,3.57
2017-07-15T11:52:07.079Z,1.50
2017-07-15T11:54:33.581Z,3.50
2017-07-15T11:57:00.063Z,2.37
2017-07-15T11:59:27.323Z,7.50
2017-07-15T12:01:54.533Z,1.40
2017-07-15T12:04:20.993Z,2.10
2017-07-15T12:06:47.528Z,1.23
2017-07-15T12:09:14.737Z,2.43
2017-07-15T12:11:41.268Z,1.70
2017-07-15T12:14:07.753Z,2.90
2017-07-15T12:16:34.958Z,4.60
2017-07-15T12:19:01.686Z,1.43
2017-07-15T12:21:28.185Z,1.93
2017-07-15T12:23:54.661Z,4.47
2017-07-15T12:26:21.207Z,2.53
2017-07-15T12:28:47.668Z,1.10
2017-07-15T12:31:14.906Z,1.20
2017-07-15T12:33:42.224Z,1.20
2017-07-15T12:36:08.753Z,1.63
2017-07-15T12:38:35.217Z,1.57
2017-07-15T12:41:01.722Z,1.90
2017-07-15T12:43:28.169Z,1.10
2017-07-15T12:45:54.689Z,2.00
2017-07-15T12:48:21.174Z,1.47
2017-07-15T12:50:47.853Z,1.83
2017-07-15T12:53:14.359Z,3.00
2017-07-15T12:55:40.840Z,1.87
2017-07-15T12:58:07.357Z,2.20
2017-07-15T13:00:33.842Z,3.80
2017-07-15T13:03:00.330Z,1.87
2017-07-15T13:05:26.862Z,0.90
2017-07-15T13:07:53.320Z,1.70
2017-07-15T13:10:20.525Z,1.87
2017-07-15T13:12:47.041Z,1.70
2017-07-15T13:15:13.515Z,1.53
2017-07-15T13:17:40.112Z,1.70
2017-07-15T13:20:06.626Z,2.17
2017-07-15T13:22:33.101Z,1.70
2017-07-15T13:24:59.618Z,1.50
2017-07-15T13:27:26.089Z,1.10
2017-07-15T13:29:52.587Z,2.33
2017-07-15T13:32:19.117Z,1.90
2017-07-15T13:34:45.620Z,1.57
2017-07-15T13:37:12.073Z,5.23
2017-07-15T13:39:38.534Z,1.27
2017-07-15T13:42:05.053Z,1.30
2017-07-15T13:44:31.547Z,6.00
2017-07-15T13:46:58.951Z,1.60
2017-07-15T13:49:25.491Z,1.33
2017-07-15T13:51:51.961Z,2.60
2017-07-15T13:54:20.135Z,2.37
2017-07-15T13:56:46.622Z,1.53
2017-07-15T13:59:13.294Z,2.80
2017-07-15T14:01:39.753Z,1.30
2017-07-15T14:04:06.225Z,1.00
2017-07-15T14:06:32.751Z,1.60
2017-07-15T14:08:59.261Z,1.67
2017-07-15T14:11:25.806Z,1.20
2017-07-15T14:13:52.297Z,1.53
2017-07-15T14:16:19.586Z,1.53
2017-07-15T14:18:46.091Z,1.87
2017-07-15T14:21:12.591Z,1.37
2017-07-15T14:23:39.124Z,1.20
2017-07-15T14:26:05.626Z,1.30
2017-07-15T14:28:32.099Z,4.20
2017-07-15T14:30:58.572Z,2.43
2017-07-15T14:33:25.051Z,1.43
2017-07-15T14:35:51.756Z,2.60
2017-07-15T14:38:18.221Z,1.10
2017-07-15T14:40:44.691Z,1.10
2017-07-15T14:43:11.202Z,1.40
2017-07-15T14:45:38.430Z,6.83
2017-07-15T14:48:04.930Z,1.03
2017-07-15T14:50:31.421Z,3.10
2017-07-15T14:52:57.907Z,1.43
2017-07-15T14:55:24.427Z,1.83
2017-07-15T14:57:50.865Z,1.70
2017-07-15T15:00:17.501Z,2.83
2017-07-15T15:02:43.956Z,1.77
2017-07-15T15:05:10.462Z,1.80
2017-07-15T15:07:36.995Z,1.67
2017-07-15T15:10:03.510Z,1.10
2017-07-15T15:12:30.034Z,1.60
2017-07-15T15:14:56.516Z,1.43
2017-07-15T15:17:22.998Z,1.50
2017-07-15T15:19:50.283Z,1.43
2017-07-15T15:22:16.740Z,1.17
2017-07-15T15:24:43.250Z,1.40
2017-07-15T15:27:09.755Z,4.53
2017-07-15T15:29:36.278Z,1.50
2017-07-15T15:32:03.746Z,1.43
2017-07-15T15:34:30.213Z,1.53
2017-07-15T15:36:56.710Z,4.03
2017-07-15T15:39:23.213Z,1.37
2017-07-15T15:41:49.680Z,3.90
2017-07-15T15:44:16.182Z,2.07
2017-07-15T15:46:43.416Z,1.60
2017-07-15T15:49:09.954Z,1.67
2017-07-15T15:51:36.434Z,1.30
2017-07-15T15:54:02.911Z,3.13
2017-07-15T15:56:29.435Z,1.83
2017-07-15T15:58:55.926Z,1.90
2017-07-15T16:01:22.432Z,2.10
2017-07-15T16:03:49.634Z,1.50
2017-07-15T16:06:16.130Z,2.40
2017-07-15T16:08:43.575Z,4.67
2017-07-15T16:11:10.770Z,3.33
2017-07-15T16:13:37.227Z,2.50
2017-07-15T16:16:03.743Z,4.20
2017-07-15T16:18:30.185Z,3.60
2017-07-15T16:20:57.687Z,3.60
2017-07-15T16:23:24.168Z,3.40
2017-07-15T16:25:50.790Z,1.83
2017-07-15T16:28:17.239Z,2.20
2017-07-15T16:30:43.727Z,1.60
2017-07-15T16:33:10.257Z,3.00
2017-07-15T16:35:36.777Z,2.20
2017-07-15T16:38:04.021Z,3.20
2017-07-15T16:40:31.245Z,2.60
2017-07-15T16:42:57.821Z,3.63
2017-07-15T16:45:24.301Z,2.10
2017-07-15T16:47:50.796Z,1.40
2017-07-15T16:50:17.305Z,1.53
2017-07-15T16:52:44.526Z,2.10
2017-07-15T16:55:11.027Z,2.80
2017-07-15T16:57:37.490Z,1.70
2017-07-15T17:00:04.000Z,1.30
2017-07-15T17:02:30.462Z,2.00
2017-07-15T17:04:56.949Z,1.73
2017-07-15T17:07:23.422Z,2.70
2017-07-15T17:09:49.918Z,1.53
2017-07-15T17:12:16.400Z,1.63
2017-07-15T17:14:42.856Z,3.23
2017-07-15T17:17:10.255Z,0.90
2017-07-15T17:19:36.724Z,1.00
2017-07-15T17:22:03.973Z,1.43
2017-07-15T17:24:30.474Z,2.10
2017-07-15T17:26:56.947Z,1.90
2017-07-15T17:29:24.231Z,1.50
2017-07-15T17:31:51.609Z,2.00
2017-07-15T17:34:18.078Z,1.43
2017-07-15T17:36:44.597Z,1.20
2017-07-15T17:39:11.058Z,2.10
2017-07-15T17:41:38.306Z,3.60
2017-07-15T17:44:04.806Z,1.33
2017-07-15T17:46:31.329Z,1.77
2017-07-15T17:48:57.820Z,2.00
2017-07-15T17:51:24.341Z,1.43
2017-07-15T17:53:51.597Z,1.20
2017-07-15T17:56:18.095Z,1.40
2017-07-15T17:58:44.588Z,1.43
2017-07-15T18:01:11.095Z,3.53
2017-07-15T18:03:37.573Z,2.30
2017-07-15T18:06:04.037Z,2.30
2017-07-15T18:08:30.527Z,1.33
2017-07-15T18:10:57.003Z,1.83
2017-07-15T18:13:24.234Z,2.37
2017-07-15T18:15:50.713Z,1.40
2017-07-15T18:18:17.270Z,1.60
2017-07-15T18:20:44.028Z,1.30
2017-07-15T18:23:10.517Z,1.17
2017-07-15T18:25:37.034Z,1.73
2017-07-15T18:28:04.238Z,2.30
2017-07-15T18:30:30.767Z,3.40
2017-07-15T18:32:57.236Z,2.83
2017-07-15T18:35:23.703Z,1.60
2017-07-15T18:37:50.219Z,2.03
2017-07-15T18:40:17.422Z,1.57
2017-07-15T18:42:43.892Z,2.57
2017-07-15T18:45:11.207Z,2.40
2017-07-15T18:47:37.711Z,6.47
2017-07-15T18:50:04.230Z,13.73
2017-07-15T18:52:30.661Z,10.20
2017-07-15T18:54:57.149Z,12.60
2017-07-15T18:57:23.640Z,17.57
2017-07-15T18:59:50.097Z,9.63
2017-07-15T19:02:16.583Z,17.50
2017-07-15T19:04:43.042Z,25.43
2017-07-15T19:07:09.530Z,17.60
2017-07-15T19:09:36.018Z,22.23
2017-07-15T19:12:02.531Z,13.93
2017-07-15T19:14:28.995Z,9.40
2017-07-15T19:16:55.532Z,12.67
2017-07-15T19:19:23.594Z,13.93
2017-07-15T19:21:50.117Z,17.33
2017-07-15T19:24:16.742Z,14.07
2017-07-15T19:26:43.208Z,7.77
2017-07-15T19:29:09.677Z,5.57
2017-07-15T19:31:36.909Z,6.23
2017-07-15T19:34:04.133Z,5.00
2017-07-15T19:36:30.810Z,3.90
2017-07-15T19:38:58.031Z,4.30
2017-07-15T19:41:24.499Z,5.53
2017-07-15T19:43:51.006Z,2.03
2017-07-15T19:46:17.480Z,5.77
2017-07-15T19:48:43.999Z,2.40
2017-07-15T19:51:10.475Z,2.40
2017-07-15T19:53:36.957Z,3.60
2017-07-15T19:56:04.215Z,2.13
2017-07-15T19:58:30.715Z,2.83
2017-07-15T20:00:57.251Z,4.20
2017-07-15T20:03:23.737Z,2.60
2017-07-15T20:05:50.215Z,3.00
2017-07-15T20:08:16.746Z,3.43
2017-07-15T20:10:43.220Z,2.90
2017-07-15T20:13:09.673Z,2.93
2017-07-15T20:15:36.334Z,6.43
2017-07-15T20:18:02.789Z,2.73
2017-07-15T20:20:30.024Z,3.57
2017-07-15T20:22:56.579Z,3.63
2017-07-15T20:25:23.790Z,2.37
2017-07-15T20:27:50.264Z,2.20
2017-07-15T20:30:17.546Z,4.13
2017-07-15T20:32:44.024Z,2.17
2017-07-15T20:35:10.520Z,2.20
2017-07-15T20:37:37.190Z,1.80
2017-07-15T20:40:03.646Z,2.67
2017-07-15T20:42:30.846Z,3.30
2017-07-15T20:44:57.374Z,4.87
2017-07-15T20:47:23.856Z,2.67
2017-07-15T20:49:51.110Z,2.47
2017-07-15T20:52:37.121Z,2.73
2017-07-15T20:55:03.630Z,2.70
2017-07-15T20:57:30.078Z,5.43
2017-07-15T20:59:56.580Z,3.63
2017-07-15T21:02:23.055Z,3.83
2017-07-15T21:04:49.533Z,1.77
2017-07-15T21:07:16.007Z,2.37
2017-07-15T21:09:42.491Z,4.30
2017-07-15T21:12:08.942Z,2.47
2017-07-15T21:14:35.448Z,6.77
2017-07-15T21:17:01.927Z,2.07
2017-07-15T21:19:29.140Z,3.47
2017-07-15T21:21:55.772Z,2.47
2017-07-15T21:24:22.289Z,2.90
2017-07-15T21:26:48.748Z,5.00
2017-07-15T21:29:15.275Z,1.80
2017-07-15T21:31:41.759Z,1.93
2017-07-15T21:34:08.244Z,2.10
2017-07-15T21:36:34.751Z,2.40
2017-07-15T21:39:01.233Z,7.83
2017-07-15T21:41:28.435Z,2.83
2017-07-15T21:43:54.937Z,2.53
2017-07-15T21:46:21.413Z,2.70
2017-07-15T21:48:47.928Z,1.60
2017-07-15T21:51:14.414Z,2.13
2017-07-15T21:53:41.651Z,2.30
2017-07-15T21:56:08.122Z,2.83
2017-07-15T21:58:34.621Z,1.70
2017-07-15T22:01:01.317Z,1.83
2017-07-15T22:03:27.817Z,4.87
2017-07-15T22:05:54.333Z,2.60
2017-07-15T22:08:21.595Z,1.93
2017-07-15T22:10:48.806Z,2.73
2017-07-15T22:13:16.359Z,3.00
2017-07-15T22:15:42.835Z,3.13
2017-07-15T22:18:10.036Z,2.97
2017-07-15T22:20:36.538Z,2.30
2017-07-15T22:23:03.053Z,2.30
2017-07-15T22:25:30.309Z,2.10
2017-07-15T22:27:56.792Z,3.33
2017-07-15T22:30:23.260Z,4.43
2017-07-15T22:32:49.810Z,3.23
2017-07-15T22:35:16.298Z,2.13
2017-07-15T22:37:42.750Z,2.50
2017-07-15T22:40:10.018Z,1.60
2017-07-15T22:42:37.369Z,2.00
2017-07-15T22:45:04.591Z,1.90
2017-07-15T22:47:31.071Z,1.60
2017-07-15T22:49:57.590Z,3.57
2017-07-15T22:52:24.062Z,2.70
2017-07-15T22:54:50.533Z,1.73
2017-07-15T22:57:17.788Z,1.63
2017-07-15T22:59:45.022Z,2.73
2017-07-15T23:02:11.578Z,2.03
2017-07-15T23:04:38.773Z,2.37
2017-07-15T23:07:05.252Z,2.97
2017-07-15T23:09:32.477Z,2.60
2017-07-15T23:11:58.935Z,2.87
2017-07-15T23:14:26.179Z,2.33
2017-07-15T23:16:53.398Z,6.17
2017-07-15T23:19:19.909Z,2.53
2017-07-15T23:21:46.428Z,2.43
2017-07-15T23:24:12.930Z,2.27
2017-07-15T23:26:40.167Z,2.23
2017-07-15T23:29:06.635Z,2.73
2017-07-15T23:31:33.145Z,3.70
2017-07-15T23:34:00.374Z,7.47
2017-07-15T23:36:26.899Z,2.90
2017-07-15T23:38:53.332Z,2.17
2017-07-15T23:41:19.789Z,2.03
2017-07-15T23:43:46.284Z,2.53
2017-07-15T23:46:12.783Z,2.93
2017-07-15T23:48:39.279Z,4.60
2017-07-15T23:51:05.762Z,2.57
2017-07-15T23:53:32.242Z,3.00
2017-07-15T23:55:58.957Z,2.50
2017-07-15T23:58:25.439Z,4.10
